sensor_id;sensor_type;location;lat;lon;timestamp;noise_LAeq;noise_LA_min;noise_LA_max;noise_LA01;noise_LA95
76261;Laerm;65076;52.362;6.588;2023-08-06T00:01:03;50.49;33.82;79.58;;
76261;Laerm;65076;52.362;6.588;2023-08-06T00:03:32;41.94;31.91;55.69;;
76261;Laerm;65076;52.362;6.588;2023-08-06T00:06:00;42.04;32.78;58.31;;
76261;Laerm;65076;52.362;6.588;2023-08-06T00:08:27;36.28;32.85;42.53;;
76261;Laerm;65076;52.362;6.588;2023-08-06T00:10:57;36.88;33.25;45.47;;
76261;Laerm;65076;52.362;6.588;2023-08-06T00:13:24;36.32;32.99;40.64;;
76261;Laerm;65076;52.362;6.588;2023-08-06T00:15:52;43.12;33.45;61.66;;
76261;Laerm;65076;52.362;6.588;2023-08-06T00:18:20;36.31;32.28;42.42;;
76261;Laerm;65076;52.362;6.588;2023-08-06T00:20:48;40.01;33.49;49.44;;
76261;Laerm;65076;52.362;6.588;2023-08-06T00:23:16;42.80;32.83;76.60;;
76261;Laerm;65076;52.362;6.588;2023-08-06T00:25:44;37.54;32.98;56.98;;
76261;Laerm;65076;52.362;6.588;2023-08-06T00:28:14;36.10;33.29;39.97;;
76261;Laerm;65076;52.362;6.588;2023-08-06T00:30:41;36.67;33.36;47.23;;
76261;Laerm;65076;52.362;6.588;2023-08-06T00:33:09;37.09;32.72;59.42;;
76261;Laerm;65076;52.362;6.588;2023-08-06T00:35:37;38.80;33.46;53.97;;
76261;Laerm;65076;52.362;6.588;2023-08-06T00:38:05;36.63;32.83;43.47;;
76261;Laerm;65076;52.362;6.588;2023-08-06T00:40:33;36.89;33.28;44.77;;
76261;Laerm;65076;52.362;6.588;2023-08-06T00:43:01;36.41;33.05;42.11;;
76261;Laerm;65076;52.362;6.588;2023-08-06T00:45:34;45.63;31.81;81.57;;
76261;Laerm;65076;52.362;6.588;2023-08-06T00:48:05;45.30;32.71;65.74;;
76261;Laerm;65076;52.362;6.588;2023-08-06T00:50:34;36.32;31.77;50.92;;
76261;Laerm;65076;52.362;6.588;2023-08-06T00:53:02;36.48;32.82;43.00;;
76261;Laerm;65076;52.362;6.588;2023-08-06T00:55:30;36.83;33.02;42.43;;
76261;Laerm;65076;52.362;6.588;2023-08-06T00:57:58;43.32;33.17;59.79;;
76261;Laerm;65076;52.362;6.588;2023-08-06T01:00:27;36.83;32.52;42.53;;
76261;Laerm;65076;52.362;6.588;2023-08-06T01:02:56;36.04;32.40;41.57;;
76261;Laerm;65076;52.362;6.588;2023-08-06T01:05:24;36.87;32.46;43.00;;
76261;Laerm;65076;52.362;6.588;2023-08-06T01:08:15;36.11;32.43;44.61;;
76261;Laerm;65076;52.362;6.588;2023-08-06T01:11:05;36.88;33.15;44.42;;
76261;Laerm;65076;52.362;6.588;2023-08-06T01:13:42;37.01;33.15;45.18;;
76261;Laerm;65076;52.362;6.588;2023-08-06T01:16:15;39.86;31.83;73.44;;
76261;Laerm;65076;52.362;6.588;2023-08-06T01:18:48;36.56;32.88;48.87;;
76261;Laerm;65076;52.362;6.588;2023-08-06T01:21:18;36.46;32.94;44.14;;
76261;Laerm;65076;52.362;6.588;2023-08-06T01:23:47;36.76;32.47;43.96;;
76261;Laerm;65076;52.362;6.588;2023-08-06T01:26:25;36.90;33.09;40.70;;
76261;Laerm;65076;52.362;6.588;2023-08-06T01:29:03;37.43;33.02;46.77;;
76261;Laerm;65076;52.362;6.588;2023-08-06T01:31:37;37.06;33.18;43.70;;
76261;Laerm;65076;52.362;6.588;2023-08-06T01:34:16;37.19;33.44;45.91;;
76261;Laerm;65076;52.362;6.588;2023-08-06T01:36:46;36.34;32.53;43.49;;
76261;Laerm;65076;52.362;6.588;2023-08-06T01:39:14;37.22;32.41;43.34;;
76261;Laerm;65076;52.362;6.588;2023-08-06T01:41:42;36.65;32.10;48.03;;
76261;Laerm;65076;52.362;6.588;2023-08-06T01:44:10;36.76;33.14;43.95;;
76261;Laerm;65076;52.362;6.588;2023-08-06T01:46:38;41.51;33.34;54.75;;
76261;Laerm;65076;52.362;6.588;2023-08-06T01:49:06;35.59;31.71;39.59;;
76261;Laerm;65076;52.362;6.588;2023-08-06T01:51:34;36.34;32.06;42.86;;
76261;Laerm;65076;52.362;6.588;2023-08-06T01:54:03;36.14;32.13;39.57;;
76261;Laerm;65076;52.362;6.588;2023-08-06T01:56:31;43.54;32.42;78.91;;
76261;Laerm;65076;52.362;6.588;2023-08-06T01:58:59;36.74;32.39;41.39;;
76261;Laerm;65076;52.362;6.588;2023-08-06T02:01:31;36.73;32.96;45.19;;
76261;Laerm;65076;52.362;6.588;2023-08-06T02:03:59;35.97;33.03;40.28;;
76261;Laerm;65076;52.362;6.588;2023-08-06T02:06:27;35.46;31.80;46.55;;
76261;Laerm;65076;52.362;6.588;2023-08-06T02:08:55;35.92;32.59;44.20;;
76261;Laerm;65076;52.362;6.588;2023-08-06T02:11:24;35.93;33.14;40.11;;
76261;Laerm;65076;52.362;6.588;2023-08-06T02:13:52;36.83;32.23;41.65;;
76261;Laerm;65076;52.362;6.588;2023-08-06T02:16:21;36.01;32.42;47.45;;
76261;Laerm;65076;52.362;6.588;2023-08-06T02:18:49;36.39;33.06;42.67;;
76261;Laerm;65076;52.362;6.588;2023-08-06T02:21:17;36.67;33.09;44.86;;
76261;Laerm;65076;52.362;6.588;2023-08-06T02:23:45;36.99;33.51;43.86;;
76261;Laerm;65076;52.362;6.588;2023-08-06T02:26:12;36.89;33.22;44.18;;
76261;Laerm;65076;52.362;6.588;2023-08-06T02:28:41;36.90;33.04;44.58;;
76261;Laerm;65076;52.362;6.588;2023-08-06T02:31:09;38.60;33.07;58.33;;
76261;Laerm;65076;52.362;6.588;2023-08-06T02:33:37;40.32;33.38;57.43;;
76261;Laerm;65076;52.362;6.588;2023-08-06T02:36:05;37.16;33.80;47.09;;
76261;Laerm;65076;52.362;6.588;2023-08-06T02:38:33;41.26;32.90;57.07;;
76261;Laerm;65076;52.362;6.588;2023-08-06T02:41:02;38.44;32.99;59.31;;
76261;Laerm;65076;52.362;6.588;2023-08-06T02:43:31;38.81;32.64;55.62;;
76261;Laerm;65076;52.362;6.588;2023-08-06T02:46:01;35.67;32.60;39.09;;
76261;Laerm;65076;52.362;6.588;2023-08-06T02:48:29;35.47;32.54;39.12;;
76261;Laerm;65076;52.362;6.588;2023-08-06T02:50:58;38.23;32.53;49.01;;
76261;Laerm;65076;52.362;6.588;2023-08-06T02:53:27;35.27;32.32;54.87;;
76261;Laerm;65076;52.362;6.588;2023-08-06T02:55:55;35.38;32.45;39.39;;
76261;Laerm;65076;52.362;6.588;2023-08-06T02:58:23;35.26;32.10;38.46;;
76261;Laerm;65076;52.362;6.588;2023-08-06T03:01:03;36.00;32.01;45.59;;
76261;Laerm;65076;52.362;6.588;2023-08-06T03:03:33;35.50;32.35;43.55;;
76261;Laerm;65076;52.362;6.588;2023-08-06T03:06:01;35.62;31.52;50.89;;
76261;Laerm;65076;52.362;6.588;2023-08-06T03:08:29;35.88;32.93;39.83;;
76261;Laerm;65076;52.362;6.588;2023-08-06T03:10:57;35.52;32.54;54.87;;
76261;Laerm;65076;52.362;6.588;2023-08-06T03:13:26;37.98;34.19;61.08;;
76261;Laerm;65076;52.362;6.588;2023-08-06T03:15:56;43.97;32.28;61.41;;
76261;Laerm;65076;52.362;6.588;2023-08-06T03:18:26;36.71;32.84;42.92;;
76261;Laerm;65076;52.362;6.588;2023-08-06T03:20:54;36.18;33.24;45.56;;
76261;Laerm;65076;52.362;6.588;2023-08-06T03:23:23;35.75;32.97;42.96;;
76261;Laerm;65076;52.362;6.588;2023-08-06T03:25:51;45.66;32.77;62.71;;
76261;Laerm;65076;52.362;6.588;2023-08-06T03:28:19;35.78;32.38;42.62;;
76261;Laerm;65076;52.362;6.588;2023-08-06T03:30:58;44.29;33.06;79.19;;
76261;Laerm;65076;52.362;6.588;2023-08-06T03:33:28;35.67;32.08;39.77;;
76261;Laerm;65076;52.362;6.588;2023-08-06T03:35:56;35.57;31.28;43.47;;
76261;Laerm;65076;52.362;6.588;2023-08-06T03:38:24;35.76;31.83;43.33;;
76261;Laerm;65076;52.362;6.588;2023-08-06T03:40:52;35.65;32.38;49.78;;
76261;Laerm;65076;52.362;6.588;2023-08-06T03:43:21;35.84;33.00;44.43;;
76261;Laerm;65076;52.362;6.588;2023-08-06T03:45:49;36.11;32.36;45.99;;
76261;Laerm;65076;52.362;6.588;2023-08-06T03:48:16;36.00;32.90;42.36;;
76261;Laerm;65076;52.362;6.588;2023-08-06T03:50:46;35.90;32.28;46.68;;
76261;Laerm;65076;52.362;6.588;2023-08-06T03:53:14;36.74;33.46;52.36;;
76261;Laerm;65076;52.362;6.588;2023-08-06T03:55:42;35.92;32.47;47.23;;
76261;Laerm;65076;52.362;6.588;2023-08-06T03:58:10;35.91;32.17;45.86;;
76261;Laerm;65076;52.362;6.588;2023-08-06T04:00:38;37.67;33.42;62.23;;
76261;Laerm;65076;52.362;6.588;2023-08-06T04:03:06;36.15;32.18;49.93;;
76261;Laerm;65076;52.362;6.588;2023-08-06T04:05:34;36.18;32.57;47.34;;
76261;Laerm;65076;52.362;6.588;2023-08-06T04:08:03;38.25;32.81;55.86;;
76261;Laerm;65076;52.362;6.588;2023-08-06T04:10:31;39.76;32.88;57.01;;
76261;Laerm;65076;52.362;6.588;2023-08-06T04:12:59;42.71;32.65;59.63;;
76261;Laerm;65076;52.362;6.588;2023-08-06T04:15:27;35.82;33.02;41.15;;
76261;Laerm;65076;52.362;6.588;2023-08-06T04:17:55;36.22;32.90;43.09;;
76261;Laerm;65076;52.362;6.588;2023-08-06T04:20:23;37.49;32.37;49.60;;
76261;Laerm;65076;52.362;6.588;2023-08-06T04:22:54;35.57;32.67;41.82;;
76261;Laerm;65076;52.362;6.588;2023-08-06T04:25:24;35.77;33.25;43.41;;
76261;Laerm;65076;52.362;6.588;2023-08-06T04:27:52;38.58;33.29;52.58;;
76261;Laerm;65076;52.362;6.588;2023-08-06T04:30:20;35.60;32.60;44.55;;
76261;Laerm;65076;52.362;6.588;2023-08-06T04:32:49;36.74;32.74;55.92;;
76261;Laerm;65076;52.362;6.588;2023-08-06T04:35:17;41.86;33.18;57.13;;
76261;Laerm;65076;52.362;6.588;2023-08-06T04:37:45;42.62;32.71;59.26;;
76261;Laerm;65076;52.362;6.588;2023-08-06T04:40:13;41.21;33.16;57.18;;
76261;Laerm;65076;52.362;6.588;2023-08-06T04:42:43;39.22;33.79;57.44;;
76261;Laerm;65076;52.362;6.588;2023-08-06T04:45:11;46.03;32.72;62.78;;
76261;Laerm;65076;52.362;6.588;2023-08-06T04:47:39;48.56;33.05;68.78;;
76261;Laerm;65076;52.362;6.588;2023-08-06T04:50:07;44.67;32.78;62.61;;
76261;Laerm;65076;52.362;6.588;2023-08-06T04:52:35;41.54;32.56;62.24;;
76261;Laerm;65076;52.362;6.588;2023-08-06T04:55:04;39.81;32.63;54.78;;
76261;Laerm;65076;52.362;6.588;2023-08-06T04:57:33;37.39;32.83;55.19;;
76261;Laerm;65076;52.362;6.588;2023-08-06T05:00:04;47.50;33.06;66.89;;
76261;Laerm;65076;52.362;6.588;2023-08-06T05:02:32;38.81;32.72;48.63;;
76261;Laerm;65076;52.362;6.588;2023-08-06T05:05:01;37.34;32.68;56.36;;
76261;Laerm;65076;52.362;6.588;2023-08-06T05:07:29;47.54;33.16;61.53;;
76261;Laerm;65076;52.362;6.588;2023-08-06T05:09:57;39.62;32.54;55.36;;
76261;Laerm;65076;52.362;6.588;2023-08-06T05:12:25;40.91;32.63;57.53;;
76261;Laerm;65076;52.362;6.588;2023-08-06T05:14:53;38.39;32.28;59.13;;
76261;Laerm;65076;52.362;6.588;2023-08-06T05:17:22;43.54;32.25;62.16;;
76261;Laerm;65076;52.362;6.588;2023-08-06T05:19:50;36.23;31.41;43.13;;
76261;Laerm;65076;52.362;6.588;2023-08-06T05:22:18;36.49;32.50;43.67;;
76261;Laerm;65076;52.362;6.588;2023-08-06T05:24:46;44.85;32.31;61.76;;
76261;Laerm;65076;52.362;6.588;2023-08-06T05:27:14;35.31;31.85;39.92;;
76261;Laerm;65076;52.362;6.588;2023-08-06T05:29:45;35.42;31.93;42.93;;
76261;Laerm;65076;52.362;6.588;2023-08-06T05:32:13;42.05;32.74;58.02;;
76261;Laerm;65076;52.362;6.588;2023-08-06T05:34:42;41.00;32.90;53.47;;
76261;Laerm;65076;52.362;6.588;2023-08-06T05:37:10;35.17;31.52;41.75;;
76261;Laerm;65076;52.362;6.588;2023-08-06T05:39:38;43.04;32.18;60.78;;
76261;Laerm;65076;52.362;6.588;2023-08-06T05:42:06;50.13;33.55;66.92;;
76261;Laerm;65076;52.362;6.588;2023-08-06T05:44:34;39.20;32.36;51.07;;
76261;Laerm;65076;52.362;6.588;2023-08-06T05:47:04;39.80;31.89;51.72;;
76261;Laerm;65076;52.362;6.588;2023-08-06T05:49:32;38.67;33.02;49.83;;
76261;Laerm;65076;52.362;6.588;2023-08-06T05:52:01;42.53;32.19;60.54;;
76261;Laerm;65076;52.362;6.588;2023-08-06T05:54:32;38.80;31.65;55.19;;
76261;Laerm;65076;52.362;6.588;2023-08-06T05:57:00;35.98;31.93;46.43;;
76261;Laerm;65076;52.362;6.588;2023-08-06T05:59:28;51.53;32.91;69.44;;
76261;Laerm;65076;52.362;6.588;2023-08-06T06:01:56;46.74;31.94;68.22;;
76261;Laerm;65076;52.362;6.588;2023-08-06T06:04:25;38.77;32.24;58.96;;
76261;Laerm;65076;52.362;6.588;2023-08-06T06:06:53;40.36;32.06;54.37;;
76261;Laerm;65076;52.362;6.588;2023-08-06T06:09:22;56.64;31.85;76.11;;
76261;Laerm;65076;52.362;6.588;2023-08-06T06:11:50;59.70;31.97;75.05;;
76261;Laerm;65076;52.362;6.588;2023-08-06T06:14:19;40.62;31.85;57.27;;
76261;Laerm;65076;52.362;6.588;2023-08-06T06:16:47;43.86;32.31;69.61;;
76261;Laerm;65076;52.362;6.588;2023-08-06T06:19:15;42.33;31.86;61.60;;
76261;Laerm;65076;52.362;6.588;2023-08-06T06:21:42;42.16;31.82;56.82;;
76261;Laerm;65076;52.362;6.588;2023-08-06T06:24:10;49.32;31.52;66.90;;
76261;Laerm;65076;52.362;6.588;2023-08-06T06:26:40;43.55;31.71;59.66;;
76261;Laerm;65076;52.362;6.588;2023-08-06T06:29:08;49.90;33.99;70.54;;
76261;Laerm;65076;52.362;6.588;2023-08-06T06:31:36;49.51;31.74;65.26;;
76261;Laerm;65076;52.362;6.588;2023-08-06T06:34:04;39.49;32.16;50.75;;
76261;Laerm;65076;52.362;6.588;2023-08-06T06:36:32;42.35;32.68;52.23;;
76261;Laerm;65076;52.362;6.588;2023-08-06T06:39:00;62.05;31.63;78.73;;
76261;Laerm;65076;52.362;6.588;2023-08-06T06:41:29;50.58;32.23;65.10;;
76261;Laerm;65076;52.362;6.588;2023-08-06T06:44:00;56.90;31.58;75.40;;
76261;Laerm;65076;52.362;6.588;2023-08-06T06:46:29;46.82;31.31;64.28;;
76261;Laerm;65076;52.362;6.588;2023-08-06T06:48:56;43.43;31.11;63.36;;
76261;Laerm;65076;52.362;6.588;2023-08-06T06:51:24;56.12;32.03;73.78;;
76261;Laerm;65076;52.362;6.588;2023-08-06T06:53:52;49.18;31.47;66.76;;
76261;Laerm;65076;52.362;6.588;2023-08-06T06:56:20;48.11;32.20;65.61;;
76261;Laerm;65076;52.362;6.588;2023-08-06T06:58:48;47.94;31.50;70.95;;
76261;Laerm;65076;52.362;6.588;2023-08-06T07:01:18;48.01;33.93;68.50;;
76261;Laerm;65076;52.362;6.588;2023-08-06T07:03:46;50.85;31.68;65.21;;
76261;Laerm;65076;52.362;6.588;2023-08-06T07:06:14;48.75;35.94;61.50;;
76261;Laerm;65076;52.362;6.588;2023-08-06T07:08:45;57.16;32.40;75.32;;
76261;Laerm;65076;52.362;6.588;2023-08-06T07:11:12;49.71;32.59;62.28;;
76261;Laerm;65076;52.362;6.588;2023-08-06T07:13:40;57.38;32.70;74.22;;
76261;Laerm;65076;52.362;6.588;2023-08-06T07:16:08;46.70;31.72;60.81;;
76261;Laerm;65076;52.362;6.588;2023-08-06T07:18:39;55.69;31.54;73.18;;
76261;Laerm;65076;52.362;6.588;2023-08-06T07:21:07;37.05;30.75;52.19;;
76261;Laerm;65076;52.362;6.588;2023-08-06T07:23:34;50.30;31.68;69.52;;
76261;Laerm;65076;52.362;6.588;2023-08-06T07:26:02;57.43;31.55;77.17;;
76261;Laerm;65076;52.362;6.588;2023-08-06T07:28:30;44.51;31.91;62.39;;
76261;Laerm;65076;52.362;6.588;2023-08-06T07:30:58;54.19;33.47;70.07;;
76261;Laerm;65076;52.362;6.588;2023-08-06T07:33:26;46.35;31.85;60.80;;
76261;Laerm;65076;52.362;6.588;2023-08-06T07:35:56;47.33;32.13;64.19;;
76261;Laerm;65076;52.362;6.588;2023-08-06T07:38:24;58.45;32.35;76.99;;
76261;Laerm;65076;52.362;6.588;2023-08-06T07:40:52;42.02;31.49;68.10;;
76261;Laerm;65076;52.362;6.588;2023-08-06T07:43:20;58.05;31.97;75.60;;
76261;Laerm;65076;52.362;6.588;2023-08-06T07:45:48;43.58;31.53;57.92;;
76261;Laerm;65076;52.362;6.588;2023-08-06T07:48:16;56.71;34.14;73.28;;
76261;Laerm;65076;52.362;6.588;2023-08-06T07:50:44;50.08;31.87;63.36;;
76261;Laerm;65076;52.362;6.588;2023-08-06T07:53:18;49.78;32.05;66.32;;
76261;Laerm;65076;52.362;6.588;2023-08-06T07:55:49;49.92;32.69;64.67;;
76261;Laerm;65076;52.362;6.588;2023-08-06T07:58:18;45.06;31.08;60.51;;
76261;Laerm;65076;52.362;6.588;2023-08-06T08:00:46;52.27;33.79;69.90;;
76261;Laerm;65076;52.362;6.588;2023-08-06T08:03:16;37.86;31.42;57.10;;
76261;Laerm;65076;52.362;6.588;2023-08-06T08:05:44;47.46;31.22;62.65;;
76261;Laerm;65076;52.362;6.588;2023-08-06T08:08:14;56.98;32.24;75.97;;
76261;Laerm;65076;52.362;6.588;2023-08-06T08:10:44;49.27;31.39;70.36;;
76261;Laerm;65076;52.362;6.588;2023-08-06T08:13:14;56.93;32.65;75.21;;
76261;Laerm;65076;52.362;6.588;2023-08-06T08:15:42;53.74;32.21;72.15;;
76261;Laerm;65076;52.362;6.588;2023-08-06T08:18:10;56.83;34.60;73.91;;
76261;Laerm;65076;52.362;6.588;2023-08-06T08:20:38;43.95;33.37;61.45;;
76261;Laerm;65076;52.362;6.588;2023-08-06T08:23:06;46.26;32.48;63.37;;
76261;Laerm;65076;52.362;6.588;2023-08-06T08:25:34;52.00;32.27;68.72;;
76261;Laerm;65076;52.362;6.588;2023-08-06T08:28:03;51.75;32.17;72.52;;
76261;Laerm;65076;52.362;6.588;2023-08-06T08:30:31;52.94;36.99;71.04;;
76261;Laerm;65076;52.362;6.588;2023-08-06T08:32:59;53.92;32.17;71.45;;
76261;Laerm;65076;52.362;6.588;2023-08-06T08:35:28;34.00;30.71;38.93;;
76261;Laerm;65076;52.362;6.588;2023-08-06T08:37:55;61.47;31.75;76.94;;
76261;Laerm;65076;52.362;6.588;2023-08-06T08:40:31;50.48;32.19;64.34;;
76261;Laerm;65076;52.362;6.588;2023-08-06T08:43:00;56.50;32.30;74.63;;
76261;Laerm;65076;52.362;6.588;2023-08-06T08:45:43;45.51;32.27;61.06;;
76261;Laerm;65076;52.362;6.588;2023-08-06T08:48:18;56.96;32.42;73.70;;
76261;Laerm;65076;52.362;6.588;2023-08-06T08:50:49;47.45;31.28;60.67;;
76261;Laerm;65076;52.362;6.588;2023-08-06T08:53:18;51.47;32.42;66.68;;
76261;Laerm;65076;52.362;6.588;2023-08-06T08:55:48;48.64;33.23;63.69;;
76261;Laerm;65076;52.362;6.588;2023-08-06T08:58:17;49.16;33.91;66.24;;
76261;Laerm;65076;52.362;6.588;2023-08-06T09:00:47;54.65;36.98;69.71;;
76261;Laerm;65076;52.362;6.588;2023-08-06T09:03:16;49.16;33.27;62.65;;
76261;Laerm;65076;52.362;6.588;2023-08-06T09:05:49;46.97;31.64;62.52;;
76261;Laerm;65076;52.362;6.588;2023-08-06T09:08:27;56.50;36.42;73.55;;
76261;Laerm;65076;52.362;6.588;2023-08-06T09:11:01;49.65;35.59;64.18;;
76261;Laerm;65076;52.362;6.588;2023-08-06T09:13:29;56.28;31.54;73.70;;
76261;Laerm;65076;52.362;6.588;2023-08-06T09:15:59;45.76;31.98;59.54;;
76261;Laerm;65076;52.362;6.588;2023-08-06T09:18:29;54.95;33.25;71.50;;
76261;Laerm;65076;52.362;6.588;2023-08-06T09:20:58;51.24;34.90;66.89;;
76261;Laerm;65076;52.362;6.588;2023-08-06T09:23:42;48.60;33.57;61.45;;
76261;Laerm;65076;52.362;6.588;2023-08-06T09:26:12;50.79;32.98;66.41;;
76261;Laerm;65076;52.362;6.588;2023-08-06T09:28:42;50.35;34.88;69.36;;
76261;Laerm;65076;52.362;6.588;2023-08-06T09:31:12;52.42;36.23;67.47;;
76261;Laerm;65076;52.362;6.588;2023-08-06T09:33:40;60.01;33.68;77.17;;
76261;Laerm;65076;52.362;6.588;2023-08-06T09:36:11;47.73;31.33;63.56;;
76261;Laerm;65076;52.362;6.588;2023-08-06T09:38:40;51.56;35.23;63.32;;
76261;Laerm;65076;52.362;6.588;2023-08-06T09:41:09;54.39;34.17;73.07;;
76261;Laerm;65076;52.362;6.588;2023-08-06T09:43:41;55.47;32.35;74.18;;
76261;Laerm;65076;52.362;6.588;2023-08-06T09:46:14;48.34;33.30;65.14;;
76261;Laerm;65076;52.362;6.588;2023-08-06T09:48:47;56.45;33.72;75.53;;
76261;Laerm;65076;52.362;6.588;2023-08-06T09:51:16;46.27;33.32;61.78;;
76261;Laerm;65076;52.362;6.588;2023-08-06T09:53:47;50.89;35.14;65.71;;
76261;Laerm;65076;52.362;6.588;2023-08-06T09:56:18;44.88;32.15;61.02;;
76261;Laerm;65076;52.362;6.588;2023-08-06T09:58:47;52.83;34.83;68.59;;
76261;Laerm;65076;52.362;6.588;2023-08-06T10:01:20;50.16;34.37;63.58;;
76261;Laerm;65076;52.362;6.588;2023-08-06T10:03:52;50.71;32.11;63.46;;
76261;Laerm;65076;52.362;6.588;2023-08-06T10:06:24;50.13;35.20;64.13;;
76261;Laerm;65076;52.362;6.588;2023-08-06T10:08:52;55.79;39.89;74.98;;
76261;Laerm;65076;52.362;6.588;2023-08-06T10:11:24;59.08;34.88;78.55;;
76261;Laerm;65076;52.362;6.588;2023-08-06T10:13:58;56.20;34.17;76.05;;
76261;Laerm;65076;52.362;6.588;2023-08-06T10:16:33;47.31;33.07;61.23;;
76261;Laerm;65076;52.362;6.588;2023-08-06T10:19:04;58.47;33.23;77.13;;
76261;Laerm;65076;52.362;6.588;2023-08-06T10:21:33;48.93;34.77;61.96;;
76261;Laerm;65076;52.362;6.588;2023-08-06T10:24:01;50.93;32.52;67.19;;
76261;Laerm;65076;52.362;6.588;2023-08-06T10:26:30;49.33;33.91;61.13;;
76261;Laerm;65076;52.362;6.588;2023-08-06T10:28:58;51.19;35.16;69.38;;
76261;Laerm;65076;52.362;6.588;2023-08-06T10:31:59;52.75;34.09;65.22;;
76261;Laerm;65076;52.362;6.588;2023-08-06T10:34:53;47.81;33.86;60.16;;
76261;Laerm;65076;52.362;6.588;2023-08-06T10:37:21;60.84;36.98;75.44;;
76261;Laerm;65076;52.362;6.588;2023-08-06T10:39:50;54.86;37.18;69.54;;
76261;Laerm;65076;52.362;6.588;2023-08-06T10:42:22;56.40;34.59;73.54;;
76261;Laerm;65076;52.362;6.588;2023-08-06T10:45:15;51.39;33.59;63.87;;
76261;Laerm;65076;52.362;6.588;2023-08-06T10:47:45;53.22;33.98;69.54;;
76261;Laerm;65076;52.362;6.588;2023-08-06T10:50:15;51.22;33.74;65.77;;
76261;Laerm;65076;52.362;6.588;2023-08-06T10:52:45;46.72;34.49;59.88;;
76261;Laerm;65076;52.362;6.588;2023-08-06T10:55:14;51.60;33.23;66.66;;
76261;Laerm;65076;52.362;6.588;2023-08-06T10:57:42;50.74;34.03;64.38;;
76261;Laerm;65076;52.362;6.588;2023-08-06T11:00:11;52.48;38.08;70.07;;
76261;Laerm;65076;52.362;6.588;2023-08-06T11:02:47;50.22;32.66;61.85;;
76261;Laerm;65076;52.362;6.588;2023-08-06T11:05:15;50.53;36.16;64.95;;
76261;Laerm;65076;52.362;6.588;2023-08-06T11:07:43;45.43;33.89;61.45;;
76261;Laerm;65076;52.362;6.588;2023-08-06T11:10:13;64.82;33.24;86.38;;
76261;Laerm;65076;52.362;6.588;2023-08-06T11:12:40;57.59;33.27;74.68;;
76261;Laerm;65076;52.362;6.588;2023-08-06T11:15:10;55.39;33.16;75.24;;
76261;Laerm;65076;52.362;6.588;2023-08-06T11:17:41;54.57;32.51;72.73;;
76261;Laerm;65076;52.362;6.588;2023-08-06T11:20:11;50.32;33.55;63.03;;
76261;Laerm;65076;52.362;6.588;2023-08-06T11:22:43;50.94;35.29;62.58;;
76261;Laerm;65076;52.362;6.588;2023-08-06T11:25:11;54.36;41.36;66.54;;
76261;Laerm;65076;52.362;6.588;2023-08-06T11:27:39;51.40;32.87;67.22;;
76261;Laerm;65076;52.362;6.588;2023-08-06T11:30:11;52.66;38.24;69.41;;
76261;Laerm;65076;52.362;6.588;2023-08-06T11:32:46;57.16;37.64;75.92;;
76261;Laerm;65076;52.362;6.588;2023-08-06T11:35:16;55.52;35.34;73.98;;
76261;Laerm;65076;52.362;6.588;2023-08-06T11:37:45;59.00;42.20;72.83;;
76261;Laerm;65076;52.362;6.588;2023-08-06T11:40:15;60.90;36.19;75.70;;
76261;Laerm;65076;52.362;6.588;2023-08-06T11:42:46;59.18;34.49;77.98;;
76261;Laerm;65076;52.362;6.588;2023-08-06T11:45:14;47.98;32.14;62.41;;
76261;Laerm;65076;52.362;6.588;2023-08-06T11:47:50;65.70;35.24;80.58;;
76261;Laerm;65076;52.362;6.588;2023-08-06T11:50:24;54.81;35.76;70.87;;
76261;Laerm;65076;52.362;6.588;2023-08-06T11:52:55;51.52;34.96;66.68;;
76261;Laerm;65076;52.362;6.588;2023-08-06T11:55:25;48.51;36.09;64.17;;
76261;Laerm;65076;52.362;6.588;2023-08-06T11:57:53;55.76;34.00;71.36;;
76261;Laerm;65076;52.362;6.588;2023-08-06T12:00:24;64.12;45.83;73.60;;
76261;Laerm;65076;52.362;6.588;2023-08-06T12:02:52;48.17;33.18;62.91;;
76261;Laerm;65076;52.362;6.588;2023-08-06T12:05:30;52.79;34.03;67.52;;
76261;Laerm;65076;52.362;6.588;2023-08-06T12:08:01;57.06;39.27;73.44;;
76261;Laerm;65076;52.362;6.588;2023-08-06T12:10:32;49.58;34.92;64.86;;
76261;Laerm;65076;52.362;6.588;2023-08-06T12:13:00;58.33;35.74;75.90;;
76261;Laerm;65076;52.362;6.588;2023-08-06T12:15:29;49.68;35.97;61.56;;
76261;Laerm;65076;52.362;6.588;2023-08-06T12:17:59;56.84;34.35;74.31;;
76261;Laerm;65076;52.362;6.588;2023-08-06T12:20:30;51.12;34.85;62.39;;
76261;Laerm;65076;52.362;6.588;2023-08-06T12:22:58;51.28;33.73;62.87;;
76261;Laerm;65076;52.362;6.588;2023-08-06T12:25:27;54.00;37.00;68.80;;
76261;Laerm;65076;52.362;6.588;2023-08-06T12:27:55;48.43;35.01;62.26;;
76261;Laerm;65076;52.362;6.588;2023-08-06T12:30:24;52.97;35.13;69.37;;
76261;Laerm;65076;52.362;6.588;2023-08-06T12:32:52;49.51;33.80;61.93;;
76261;Laerm;65076;52.362;6.588;2023-08-06T12:35:20;50.89;33.96;64.13;;
76261;Laerm;65076;52.362;6.588;2023-08-06T12:37:49;56.40;38.67;74.17;;
76261;Laerm;65076;52.362;6.588;2023-08-06T12:40:21;57.96;35.90;75.99;;
76261;Laerm;65076;52.362;6.588;2023-08-06T12:43:02;67.65;37.38;86.88;;
76261;Laerm;65076;52.362;6.588;2023-08-06T12:45:30;56.52;36.07;73.30;;
76261;Laerm;65076;52.362;6.588;2023-08-06T12:47:58;47.02;34.64;60.42;;
76261;Laerm;65076;52.362;6.588;2023-08-06T12:50:26;48.09;34.18;67.02;;
76261;Laerm;65076;52.362;6.588;2023-08-06T12:52:56;55.50;36.75;71.79;;
76261;Laerm;65076;52.362;6.588;2023-08-06T12:55:23;53.19;34.69;78.42;;
76261;Laerm;65076;52.362;6.588;2023-08-06T12:57:51;56.22;38.61;72.13;;
76261;Laerm;65076;52.362;6.588;2023-08-06T13:00:26;53.30;36.77;72.19;;
76261;Laerm;65076;52.362;6.588;2023-08-06T13:02:54;52.05;34.40;65.40;;
76261;Laerm;65076;52.362;6.588;2023-08-06T13:05:23;48.97;32.79;64.01;;
76261;Laerm;65076;52.362;6.588;2023-08-06T13:07:51;55.84;33.95;73.69;;
76261;Laerm;65076;52.362;6.588;2023-08-06T13:10:20;51.69;33.69;63.12;;
76261;Laerm;65076;52.362;6.588;2023-08-06T13:12:49;57.30;36.43;75.65;;
76261;Laerm;65076;52.362;6.588;2023-08-06T13:15:18;48.72;33.63;65.60;;
76261;Laerm;65076;52.362;6.588;2023-08-06T13:17:47;56.09;36.87;71.56;;
76261;Laerm;65076;52.362;6.588;2023-08-06T13:20:16;50.49;33.76;64.51;;
76261;Laerm;65076;52.362;6.588;2023-08-06T13:22:46;50.42;35.98;68.58;;
76261;Laerm;65076;52.362;6.588;2023-08-06T13:25:19;51.11;34.88;67.70;;
76261;Laerm;65076;52.362;6.588;2023-08-06T13:27:49;51.47;34.76;75.43;;
76261;Laerm;65076;52.362;6.588;2023-08-06T13:30:17;53.33;37.94;69.02;;
76261;Laerm;65076;52.362;6.588;2023-08-06T13:32:45;49.93;33.37;63.82;;
76261;Laerm;65076;52.362;6.588;2023-08-06T13:35:15;48.19;34.92;65.77;;
76261;Laerm;65076;52.362;6.588;2023-08-06T13:37:43;65.01;37.14;78.52;;
76261;Laerm;65076;52.362;6.588;2023-08-06T13:40:11;50.88;34.45;64.92;;
76261;Laerm;65076;52.362;6.588;2023-08-06T13:42:41;57.29;35.65;74.93;;
76261;Laerm;65076;52.362;6.588;2023-08-06T13:45:10;48.97;33.32;61.77;;
76261;Laerm;65076;52.362;6.588;2023-08-06T13:47:38;58.27;39.74;72.99;;
76261;Laerm;65076;52.362;6.588;2023-08-06T13:50:06;49.22;36.17;63.41;;
76261;Laerm;65076;52.362;6.588;2023-08-06T13:52:34;52.78;36.82;71.79;;
76261;Laerm;65076;52.362;6.588;2023-08-06T13:55:03;52.61;41.70;72.44;;
76261;Laerm;65076;52.362;6.588;2023-08-06T13:57:32;49.62;38.24;63.11;;